sensor_id;sensor_type;location;lat;lon;timestamp;pressure;altitude;pressure_sealevel;temperature;humidity
64352;BME280;50680;52.626;-8.668;2023-03-13T00:00:59;98226.16;;;14.23;100.00
64352;BME280;50680;52.626;-8.668;2023-03-13T00:03:27;98222.53;;;14.24;100.00
64352;BME280;50680;52.626;-8.668;2023-03-13T00:05:57;98219.06;;;14.24;100.00
64352;BME280;50680;52.626;-8.668;2023-03-13T00:08:25;98222.19;;;14.27;100.00
64352;BME280;50680;52.626;-8.668;2023-03-13T00:10:54;98214.00;;;14.22;100.00
64352;BME280;50680;52.626;-8.668;2023-03-13T00:13:21;98210.34;;;14.23;100.00
64352;BME280;50680;52.626;-8.668;2023-03-13T00:15:48;98209.03;;;14.27;100.00
64352;BME280;50680;52.626;-8.668;2023-03-13T00:18:15;98197.81;;;14.25;100.00
64352;BME280;50680;52.626;-8.668;2023-03-13T00:20:42;98194.00;;;14.28;100.00
64352;BME280;50680;52.626;-8.668;2023-03-13T00:23:09;98184.13;;;14.30;100.00
64352;BME280;50680;52.626;-8.668;2023-03-13T00:25:35;98178.72;;;14.23;100.00
64352;BME280;50680;52.626;-8.668;2023-03-13T00:28:02;98162.84;;;14.32;100.00
64352;BME280;50680;52.626;-8.668;2023-03-13T00:30:29;98150.38;;;14.25;100.00
64352;BME280;50680;52.626;-8.668;2023-03-13T00:32:56;98160.63;;;14.20;100.00
64352;BME280;50680;52.626;-8.668;2023-03-13T00:35:23;98140.78;;;14.09;100.00
64352;BME280;50680;52.626;-8.668;2023-03-13T00:37:49;98141.25;;;14.13;100.00
64352;BME280;50680;52.626;-8.668;2023-03-13T00:40:16;98115.75;;;14.14;100.00
64352;BME280;50680;52.626;-8.668;2023-03-13T00:42:44;98111.00;;;14.09;100.00
64352;BME280;50680;52.626;-8.668;2023-03-13T00:45:11;98103.44;;;14.06;100.00
64352;BME280;50680;52.626;-8.668;2023-03-13T00:47:37;98100.53;;;14.01;100.00
64352;BME280;50680;52.626;-8.668;2023-03-13T00:50:05;98094.34;;;13.94;100.00
64352;BME280;50680;52.626;-8.668;2023-03-13T00:52:31;98091.19;;;13.98;100.00
64352;BME280;50680;52.626;-8.668;2023-03-13T00:54:58;98094.44;;;14.00;100.00
64352;BME280;50680;52.626;-8.668;2023-03-13T00:57:25;98084.63;;;13.94;100.00
64352;BME280;50680;52.626;-8.668;2023-03-13T00:59:52;98082.72;;;14.03;100.00
64352;BME280;50680;52.626;-8.668;2023-03-13T01:02:18;98081.56;;;14.05;100.00
64352;BME280;50680;52.626;-8.668;2023-03-13T01:04:45;98081.09;;;14.02;100.00
64352;BME280;50680;52.626;-8.668;2023-03-13T01:07:12;98073.03;;;14.03;100.00
64352;BME280;50680;52.626;-8.668;2023-03-13T01:09:39;98057.56;;;14.00;100.00
64352;BME280;50680;52.626;-8.668;2023-03-13T01:12:06;98060.94;;;14.09;100.00
64352;BME280;50680;52.626;-8.668;2023-03-13T01:14:33;98057.75;;;13.99;100.00
64352;BME280;50680;52.626;-8.668;2023-03-13T01:16:59;98056.38;;;14.03;100.00
64352;BME280;50680;52.626;-8.668;2023-03-13T01:19:26;98036.16;;;14.03;100.00
64352;BME280;50680;52.626;-8.668;2023-03-13T01:21:53;98037.94;;;14.03;100.00
64352;BME280;50680;52.626;-8.668;2023-03-13T01:24:20;98038.13;;;14.01;100.00
64352;BME280;50680;52.626;-8.668;2023-03-13T01:26:47;98030.50;;;14.06;100.00
64352;BME280;50680;52.626;-8.668;2023-03-13T01:29:14;98029.69;;;14.06;100.00
64352;BME280;50680;52.626;-8.668;2023-03-13T01:31:41;98008.34;;;14.01;100.00
64352;BME280;50680;52.626;-8.668;2023-03-13T01:34:09;98008.34;;;14.01;100.00
64352;BME280;50680;52.626;-8.668;2023-03-13T01:36:36;98009.59;;;13.90;100.00
64352;BME280;50680;52.626;-8.668;2023-03-13T01:39:03;98003.25;;;13.84;100.00
64352;BME280;50680;52.626;-8.668;2023-03-13T01:41:31;97998.97;;;13.83;100.00
64352;BME280;50680;52.626;-8.668;2023-03-13T01:43:57;97994.09;;;13.72;100.00
64352;BME280;50680;52.626;-8.668;2023-03-13T01:46:26;97984.78;;;13.69;100.00
64352;BME280;50680;52.626;-8.668;2023-03-13T01:49:08;97982.94;;;13.70;100.00
64352;BME280;50680;52.626;-8.668;2023-03-13T01:51:48;97977.41;;;13.65;100.00
64352;BME280;50680;52.626;-8.668;2023-03-13T01:57:29;97972.56;;;13.53;100.00
64352;BME280;50680;52.626;-8.668;2023-03-13T02:00:04;97970.22;;;13.59;100.00
64352;BME280;50680;52.626;-8.668;2023-03-13T02:02:28;97959.25;;;13.55;100.00
64352;BME280;50680;52.626;-8.668;2023-03-13T02:04:59;97958.03;;;13.58;100.00
64352;BME280;50680;52.626;-8.668;2023-03-13T02:07:37;97939.97;;;13.54;100.00
64352;BME280;50680;52.626;-8.668;2023-03-13T02:10:07;97942.53;;;13.63;100.00
64352;BME280;50680;52.626;-8.668;2023-03-13T02:12:37;97942.97;;;13.51;100.00
64352;BME280;50680;52.626;-8.668;2023-03-13T02:15:08;97942.31;;;13.49;100.00
64352;BME280;50680;52.626;-8.668;2023-03-13T02:17:37;97921.72;;;13.38;100.00
64352;BME280;50680;52.626;-8.668;2023-03-13T02:20:05;97933.34;;;13.44;100.00
64352;BME280;50680;52.626;-8.668;2023-03-13T02:25:41;97909.19;;;13.40;100.00
64352;BME280;50680;52.626;-8.668;2023-03-13T02:28:12;97921.06;;;13.36;100.00
64352;BME280;50680;52.626;-8.668;2023-03-13T02:30:42;97913.19;;;13.36;100.00
64352;BME280;50680;52.626;-8.668;2023-03-13T02:33:13;97909.53;;;13.37;100.00
64352;BME280;50680;52.626;-8.668;2023-03-13T02:35:42;97903.00;;;13.33;100.00
64352;BME280;50680;52.626;-8.668;2023-03-13T02:38:13;97894.44;;;13.31;100.00
64352;BME280;50680;52.626;-8.668;2023-03-13T02:40:44;97901.72;;;13.29;100.00
64352;BME280;50680;52.626;-8.668;2023-03-13T02:46:07;97885.63;;;13.24;100.00
64352;BME280;50680;52.626;-8.668;2023-03-13T02:48:48;97895.03;;;13.18;100.00
64352;BME280;50680;52.626;-8.668;2023-03-13T02:53:55;97896.50;;;13.21;100.00
64352;BME280;50680;52.626;-8.668;2023-03-13T02:56:24;97909.78;;;13.04;100.00
64352;BME280;50680;52.626;-8.668;2023-03-13T02:58:52;97874.94;;;13.02;100.00
64352;BME280;50680;52.626;-8.668;2023-03-13T03:01:19;97828.34;;;12.96;100.00
64352;BME280;50680;52.626;-8.668;2023-03-13T03:03:46;97799.66;;;13.01;100.00
64352;BME280;50680;52.626;-8.668;2023-03-13T03:06:13;97835.75;;;12.92;100.00
64352;BME280;50680;52.626;-8.668;2023-03-13T03:08:40;97857.16;;;12.89;100.00
64352;BME280;50680;52.626;-8.668;2023-03-13T03:11:10;97862.53;;;12.96;100.00
64352;BME280;50680;52.626;-8.668;2023-03-13T03:13:37;97865.56;;;12.85;100.00
64352;BME280;50680;52.626;-8.668;2023-03-13T03:16:08;97855.09;;;12.76;100.00
64352;BME280;50680;52.626;-8.668;2023-03-13T03:18:36;97848.44;;;12.66;100.00
64352;BME280;50680;52.626;-8.668;2023-03-13T03:21:04;97844.53;;;12.62;100.00
64352;BME280;50680;52.626;-8.668;2023-03-13T03:23:32;97837.34;;;12.55;100.00
64352;BME280;50680;52.626;-8.668;2023-03-13T03:26:00;97831.44;;;12.53;100.00
64352;BME280;50680;52.626;-8.668;2023-03-13T03:28:27;97817.50;;;12.53;100.00
64352;BME280;50680;52.626;-8.668;2023-03-13T03:30:54;97819.47;;;12.51;100.00
64352;BME280;50680;52.626;-8.668;2023-03-13T03:33:22;97842.75;;;12.54;100.00
64352;BME280;50680;52.626;-8.668;2023-03-13T03:35:49;97834.88;;;12.54;100.00
64352;BME280;50680;52.626;-8.668;2023-03-13T03:38:16;97816.84;;;12.51;100.00
64352;BME280;50680;52.626;-8.668;2023-03-13T03:40:43;97816.53;;;12.46;100.00
64352;BME280;50680;52.626;-8.668;2023-03-13T03:43:10;97813.44;;;12.42;100.00
64352;BME280;50680;52.626;-8.668;2023-03-13T03:45:36;97808.06;;;12.35;100.00
64352;BME280;50680;52.626;-8.668;2023-03-13T03:48:03;97809.41;;;12.31;100.00
64352;BME280;50680;52.626;-8.668;2023-03-13T03:50:30;97806.50;;;12.26;100.00
64352;BME280;50680;52.626;-8.668;2023-03-13T03:52:57;97798.13;;;12.22;100.00
64352;BME280;50680;52.626;-8.668;2023-03-13T03:55:24;97788.34;;;12.16;100.00
64352;BME280;50680;52.626;-8.668;2023-03-13T03:57:50;97795.09;;;12.11;100.00
64352;BME280;50680;52.626;-8.668;2023-03-13T04:00:17;97784.28;;;12.06;100.00
64352;BME280;50680;52.626;-8.668;2023-03-13T04:02:47;97797.41;;;12.06;100.00
64352;BME280;50680;52.626;-8.668;2023-03-13T04:05:15;97788.72;;;12.05;100.00
64352;BME280;50680;52.626;-8.668;2023-03-13T04:07:41;97794.47;;;12.00;100.00
64352;BME280;50680;52.626;-8.668;2023-03-13T04:10:09;97799.09;;;11.98;100.00
64352;BME280;50680;52.626;-8.668;2023-03-13T04:12:35;97797.81;;;11.94;100.00
64352;BME280;50680;52.626;-8.668;2023-03-13T04:15:03;97797.81;;;11.86;100.00
64352;BME280;50680;52.626;-8.668;2023-03-13T04:17:30;97789.59;;;11.89;100.00
64352;BME280;50680;52.626;-8.668;2023-03-13T04:19:56;97796.16;;;11.93;100.00
64352;BME280;50680;52.626;-8.668;2023-03-13T04:22:23;97795.53;;;11.91;100.00
64352;BME280;50680;52.626;-8.668;2023-03-13T04:24:50;97785.31;;;11.96;100.00
64352;BME280;50680;52.626;-8.668;2023-03-13T04:27:17;97786.59;;;12.00;100.00
64352;BME280;50680;52.626;-8.668;2023-03-13T04:29:44;97789.22;;;12.00;100.00
64352;BME280;50680;52.626;-8.668;2023-03-13T04:32:11;97795.31;;;12.01;100.00
64352;BME280;50680;52.626;-8.668;2023-03-13T04:34:38;97792.22;;;11.97;100.00
64352;BME280;50680;52.626;-8.668;2023-03-13T04:37:05;97793.84;;;11.98;100.00
64352;BME280;50680;52.626;-8.668;2023-03-13T04:39:31;97797.16;;;11.92;100.00
64352;BME280;50680;52.626;-8.668;2023-03-13T04:41:58;97805.03;;;11.92;100.00
64352;BME280;50680;52.626;-8.668;2023-03-13T04:44:25;97806.31;;;11.96;100.00
64352;BME280;50680;52.626;-8.668;2023-03-13T04:46:52;97797.34;;;11.91;100.00
64352;BME280;50680;52.626;-8.668;2023-03-13T04:49:18;97797.34;;;11.91;100.00
64352;BME280;50680;52.626;-8.668;2023-03-13T04:51:45;97789.13;;;11.85;100.00
64352;BME280;50680;52.626;-8.668;2023-03-13T04:54:12;97800.44;;;11.86;100.00
64352;BME280;50680;52.626;-8.668;2023-03-13T04:56:39;97801.78;;;11.82;100.00
64352;BME280;50680;52.626;-8.668;2023-03-13T04:59:13;97802.09;;;11.87;100.00
64352;BME280;50680;52.626;-8.668;2023-03-13T05:01:41;97787.47;;;11.84;100.00
64352;BME280;50680;52.626;-8.668;2023-03-13T05:04:09;97793.84;;;11.90;100.00
64352;BME280;50680;52.626;-8.668;2023-03-13T05:06:37;97788.59;;;11.90;100.00
64352;BME280;50680;52.626;-8.668;2023-03-13T05:09:04;97780.72;;;11.90;100.00
64352;BME280;50680;52.626;-8.668;2023-03-13T05:11:32;97783.50;;;11.89;100.00
64352;BME280;50680;52.626;-8.668;2023-03-13T05:13:59;97771.91;;;11.91;100.00
64352;BME280;50680;52.626;-8.668;2023-03-13T05:16:26;97783.84;;;11.94;100.00
64352;BME280;50680;52.626;-8.668;2023-03-13T05:18:53;97777.16;;;11.91;100.00
64352;BME280;50680;52.626;-8.668;2023-03-13T05:21:19;97773.00;;;11.89;100.00
64352;BME280;50680;52.626;-8.668;2023-03-13T05:23:46;97786.84;;;11.82;100.00
64352;BME280;50680;52.626;-8.668;2023-03-13T05:26:13;97779.91;;;11.90;100.00
64352;BME280;50680;52.626;-8.668;2023-03-13T05:28:39;97779.91;;;11.90;100.00
64352;BME280;50680;52.626;-8.668;2023-03-13T05:31:06;97784.03;;;11.84;100.00
64352;BME280;50680;52.626;-8.668;2023-03-13T05:33:33;97777.78;;;11.85;100.00
64352;BME280;50680;52.626;-8.668;2023-03-13T05:36:00;97780.72;;;11.90;100.00
64352;BME280;50680;52.626;-8.668;2023-03-13T05:38:27;97782.88;;;11.86;100.00
64352;BME280;50680;52.626;-8.668;2023-03-13T05:40:54;97788.47;;;11.92;100.00
64352;BME280;50680;52.626;-8.668;2023-03-13T05:43:20;97781.72;;;11.97;100.00
64352;BME280;50680;52.626;-8.668;2023-03-13T05:45:47;97784.81;;;12.01;100.00
64352;BME280;50680;52.626;-8.668;2023-03-13T05:48:14;97788.25;;;12.01;100.00
64352;BME280;50680;52.626;-8.668;2023-03-13T05:50:41;97784.16;;;11.99;100.00
64352;BME280;50680;52.626;-8.668;2023-03-13T05:53:08;97781.19;;;12.02;100.00
64352;BME280;50680;52.626;-8.668;2023-03-13T05:55:34;97781.53;;;11.99;100.00
64352;BME280;50680;52.626;-8.668;2023-03-13T05:58:01;97778.09;;;11.98;100.00
64352;BME280;50680;52.626;-8.668;2023-03-13T06:00:28;97780.06;;;11.96;100.00
64352;BME280;50680;52.626;-8.668;2023-03-13T06:02:55;97785.66;;;11.93;100.00
64352;BME280;50680;52.626;-8.668;2023-03-13T06:05:21;97779.44;;;11.94;100.00
64352;BME280;50680;52.626;-8.668;2023-03-13T06:07:49;97784.63;;;12.02;100.00
64352;BME280;50680;52.626;-8.668;2023-03-13T06:10:16;97785.63;;;12.01;100.00
64352;BME280;50680;52.626;-8.668;2023-03-13T06:12:43;97783.97;;;12.00;100.00
64352;BME280;50680;52.626;-8.668;2023-03-13T06:15:10;97786.28;;;12.03;100.00
64352;BME280;50680;52.626;-8.668;2023-03-13T06:17:37;97778.44;;;11.95;100.00
64352;BME280;50680;52.626;-8.668;2023-03-13T06:20:05;97790.00;;;12.09;100.00
64352;BME280;50680;52.626;-8.668;2023-03-13T06:22:31;97787.91;;;12.04;100.00
64352;BME280;50680;52.626;-8.668;2023-03-13T06:24:58;97781.19;;;12.02;100.00
64352;BME280;50680;52.626;-8.668;2023-03-13T06:27:25;97783.66;;;12.03;100.00
64352;BME280;50680;52.626;-8.668;2023-03-13T06:29:52;97777.75;;;12.01;100.00
64352;BME280;50680;52.626;-8.668;2023-03-13T06:32:19;97777.53;;;12.11;100.00
64352;BME280;50680;52.626;-8.668;2023-03-13T06:34:46;97776.72;;;12.11;100.00
64352;BME280;50680;52.626;-8.668;2023-03-13T06:37:13;97773.91;;;12.12;100.00
64352;BME280;50680;52.626;-8.668;2023-03-13T06:39:39;97774.72;;;12.13;100.00
64352;BME280;50680;52.626;-8.668;2023-03-13T06:42:06;97778.34;;;12.12;100.00
64352;BME280;50680;52.626;-8.668;2023-03-13T06:44:33;97767.69;;;12.13;100.00
64352;BME280;50680;52.626;-8.668;2023-03-13T06:47:00;97772.75;;;12.15;100.00
64352;BME280;50680;52.626;-8.668;2023-03-13T06:49:27;97767.84;;;12.12;100.00
64352;BME280;50680;52.626;-8.668;2023-03-13T06:51:56;97772.22;;;12.19;100.00
64352;BME280;50680;52.626;-8.668;2023-03-13T06:54:24;97775.00;;;12.18;100.00
64352;BME280;50680;52.626;-8.668;2023-03-13T06:56:51;97780.09;;;12.19;100.00
64352;BME280;50680;52.626;-8.668;2023-03-13T06:59:18;97777.34;;;12.13;100.00
64352;BME280;50680;52.626;-8.668;2023-03-13T07:01:45;97780.63;;;12.15;100.00
64352;BME280;50680;52.626;-8.668;2023-03-13T07:04:12;97775.69;;;12.20;100.00
64352;BME280;50680;52.626;-8.668;2023-03-13T07:06:39;97781.09;;;12.18;100.00
64352;BME280;50680;52.626;-8.668;2023-03-13T07:09:06;97780.94;;;12.20;100.00
64352;BME280;50680;52.626;-8.668;2023-03-13T07:11:32;97785.72;;;12.16;100.00
64352;BME280;50680;52.626;-8.668;2023-03-13T07:13:59;97789.28;;;12.23;100.00
64352;BME280;50680;52.626;-8.668;2023-03-13T07:16:43;97785.66;;;12.25;100.00
64352;BME280;50680;52.626;-8.668;2023-03-13T07:19:09;97792.13;;;12.14;100.00
64352;BME280;50680;52.626;-8.668;2023-03-13T07:21:36;97787.22;;;12.11;100.00
64352;BME280;50680;52.626;-8.668;2023-03-13T07:24:03;97806.38;;;12.19;100.00
64352;BME280;50680;52.626;-8.668;2023-03-13T07:26:30;97803.69;;;12.28;100.00
64352;BME280;50680;52.626;-8.668;2023-03-13T07:28:57;97797.63;;;12.27;100.00
64352;BME280;50680;52.626;-8.668;2023-03-13T07:31:24;97797.94;;;12.32;100.00
64352;BME280;50680;52.626;-8.668;2023-03-13T07:33:53;97806.28;;;12.36;100.00
64352;BME280;50680;52.626;-8.668;2023-03-13T07:36:22;97791.66;;;12.33;100.00
64352;BME280;50680;52.626;-8.668;2023-03-13T07:38:50;97804.56;;;12.20;100.00
64352;BME280;50680;52.626;-8.668;2023-03-13T07:41:18;97809.06;;;12.34;100.00
64352;BME280;50680;52.626;-8.668;2023-03-13T07:43:46;97799.38;;;12.35;100.00
64352;BME280;50680;52.626;-8.668;2023-03-13T07:46:15;97807.91;;;12.37;100.00
64352;BME280;50680;52.626;-8.668;2023-03-13T07:48:47;97799.38;;;12.35;100.00
64352;BME280;50680;52.626;-8.668;2023-03-13T07:51:17;97799.84;;;12.38;100.00
64352;BME280;50680;52.626;-8.668;2023-03-13T07:53:48;97801.81;;;12.36;100.00
64352;BME280;50680;52.626;-8.668;2023-03-13T07:56:18;97800.47;;;12.40;100.00
64352;BME280;50680;52.626;-8.668;2023-03-13T07:58:45;97808.44;;;12.32;100.00
64352;BME280;50680;52.626;-8.668;2023-03-13T08:01:22;97813.63;;;12.40;100.00
64352;BME280;50680;52.626;-8.668;2023-03-13T08:03:53;97805.81;;;12.32;100.00
64352;BME280;50680;52.626;-8.668;2023-03-13T08:06:23;97810.44;;;12.30;100.00
64352;BME280;50680;52.626;-8.668;2023-03-13T08:08:51;97812.84;;;12.32;100.00
64352;BME280;50680;52.626;-8.668;2023-03-13T08:11:21;97824.84;;;12.34;100.00
64352;BME280;50680;52.626;-8.668;2023-03-13T08:13:50;97830.22;;;12.41;100.00
64352;BME280;50680;52.626;-8.668;2023-03-13T08:16:19;97819.25;;;12.37;100.00
64352;BME280;50680;52.626;-8.668;2023-03-13T08:18:48;97822.38;;;12.33;100.00
64352;BME280;50680;52.626;-8.668;2023-03-13T08:21:18;97832.22;;;12.39;100.00
64352;BME280;50680;52.626;-8.668;2023-03-13T08:23:47;97832.00;;;12.40;100.00
64352;BME280;50680;52.626;-8.668;2023-03-13T08:26:15;97833.47;;;12.43;100.00
64352;BME280;50680;52.626;-8.668;2023-03-13T08:28:43;97838.16;;;12.56;100.00
64352;BME280;50680;52.626;-8.668;2023-03-13T08:33:40;97845.88;;;12.57;100.00
64352;BME280;50680;52.626;-8.668;2023-03-13T08:38:40;97848.66;;;12.56;100.00
64352;BME280;50680;52.626;-8.668;2023-03-13T08:41:17;97856.50;;;12.64;100.00
64352;BME280;50680;52.626;-8.668;2023-03-13T08:43:45;97859.41;;;12.69;100.00
64352;BME280;50680;52.626;-8.668;2023-03-13T08:46:12;97853.00;;;12.72;100.00
64352;BME280;50680;52.626;-8.668;2023-03-13T08:48:40;97860.97;;;12.78;100.00
64352;BME280;50680;52.626;-8.668;2023-03-13T08:51:10;97865.78;;;12.75;100.00
64352;BME280;50680;52.626;-8.668;2023-03-13T08:53:39;97874.97;;;12.79;100.00
64352;BME280;50680;52.626;-8.668;2023-03-13T08:56:08;97871.78;;;12.84;100.00
64352;BME280;50680;52.626;-8.668;2023-03-13T08:58:35;97871.75;;;12.92;100.00
64352;BME280;50680;52.626;-8.668;2023-03-13T09:01:04;97872.16;;;13.04;100.00
64352;BME280;50680;52.626;-8.668;2023-03-13T09:03:31;97875.41;;;13.06;100.00
64352;BME280;50680;52.626;-8.668;2023-03-13T09:05:59;97887.31;;;13.16;100.00
64352;BME280;50680;52.626;-8.668;2023-03-13T09:08:28;97878.44;;;13.17;100.00
64352;BME280;50680;52.626;-8.668;2023-03-13T09:11:00;97893.59;;;13.15;100.00
64352;BME280;50680;52.626;-8.668;2023-03-13T09:13:29;97896.91;;;13.09;100.00
64352;BME280;50680;52.626;-8.668;2023-03-13T09:16:16;97885.34;;;13.19;100.00
64352;BME280;50680;52.626;-8.668;2023-03-13T09:18:43;97889.88;;;13.25;100.00
64352;BME280;50680;52.626;-8.668;2023-03-13T09:21:19;97892.75;;;13.38;100.00
64352;BME280;50680;52.626;-8.668;2023-03-13T09:23:46;97900.31;;;13.41;100.00
64352;BME280;50680;52.626;-8.668;2023-03-13T09:26:14;97904.22;;;13.45;100.00
64352;BME280;50680;52.626;-8.668;2023-03-13T09:28:40;97901.56;;;13.45;100.00
64352;BME280;50680;52.626;-8.668;2023-03-13T09:31:11;97911.19;;;13.53;100.00
64352;BME280;50680;52.626;-8.668;2023-03-13T09:33:39;97909.78;;;13.65;100.00
64352;BME280;50680;52.626;-8.668;2023-03-13T09:36:07;97907.88;;;13.74;100.00
64352;BME280;50680;52.626;-8.668;2023-03-13T09:38:35;97911.25;;;13.83;100.00
64352;BME280;50680;52.626;-8.668;2023-03-13T09:49:14;97908.41;;;13.99;100.00
64352;BME280;50680;52.626;-8.668;2023-03-13T09:51:47;97911.88;;;14.00;100.00
64352;BME280;50680;52.626;-8.668;2023-03-13T09:54:30;97914.50;;;14.00;100.00
64352;BME280;50680;52.626;-8.668;2023-03-13T09:57:06;97915.34;;;14.00;100.00
64352;BME280;50680;52.626;-8.668;2023-03-13T10:02:20;97926.50;;;14.17;100.00
64352;BME280;50680;52.626;-8.668;2023-03-13T10:05:05;97927.13;;;14.19;100.00
64352;BME280;50680;52.626;-8.668;2023-03-13T10:07:33;97932.31;;;14.27;100.00
64352;BME280;50680;52.626;-8.668;2023-03-13T10:10:02;97930.31;;;14.29;100.00
64352;BME280;50680;52.626;-8.668;2023-03-13T10:12:38;97933.56;;;14.32;100.00
64352;BME280;50680;52.626;-8.668;2023-03-13T10:15:27;97931.13;;;14.30;100.00
64352;BME280;50680;52.626;-8.668;2023-03-13T10:17:58;97929.91;;;14.33;100.00
64352;BME280;50680;52.626;-8.668;2023-03-13T10:20:28;97934.84;;;14.36;100.00
64352;BME280;50680;52.626;-8.668;2023-03-13T10:25:53;97933.66;;;14.38;100.00
64352;BME280;50680;52.626;-8.668;2023-03-13T10:28:20;97944.66;;;14.42;100.00
64352;BME280;50680;52.626;-8.668;2023-03-13T10:30:49;97958.38;;;14.52;100.00
64352;BME280;50680;52.626;-8.668;2023-03-13T10:33:27;97955.09;;;14.65;100.00
64352;BME280;50680;52.626;-8.668;2023-03-13T10:36:11;97957.78;;;14.87;100.00
64352;BME280;50680;52.626;-8.668;2023-03-13T10:38:53;97959.72;;;14.99;100.00
64352;BME280;50680;52.626;-8.668;2023-03-13T10:41:26;97956.22;;;15.35;100.00
64352;BME280;50680;52.626;-8.668;2023-03-13T10:43:58;97955.50;;;15.48;100.00
64352;BME280;50680;52.626;-8.668;2023-03-13T10:46:27;97953.53;;;15.57;100.00
64352;BME280;50680;52.626;-8.668;2023-03-13T10:48:56;97954.41;;;15.64;100.00
64352;BME280;50680;52.626;-8.668;2023-03-13T10:51:39;97957.41;;;15.83;100.00
64352;BME280;50680;52.626;-8.668;2023-03-13T10:54:26;97951.59;;;15.94;100.00
64352;BME280;50680;52.626;-8.668;2023-03-13T10:59:41;97953.81;;;15.90;100.00
64352;BME280;50680;52.626;-8.668;2023-03-13T11:02:34;97948.97;;;15.94;100.00
64352;BME280;50680;52.626;-8.668;2023-03-13T11:07:56;97945.00;;;16.11;100.00
64352;BME280;50680;52.626;-8.668;2023-03-13T11:10:25;97950.28;;;16.11;100.00
64352;BME280;50680;52.626;-8.668;2023-03-13T11:12:55;97948.78;;;16.02;100.00
64352;BME280;50680;52.626;-8.668;2023-03-13T11:15:34;97951.41;;;15.95;100.00
64352;BME280;50680;52.626;-8.668;2023-03-13T11:18:36;97955.00;;;15.88;100.00
64352;BME280;50680;52.626;-8.668;2023-03-13T11:21:04;97962.56;;;15.69;100.00
64352;BME280;50680;52.626;-8.668;2023-03-13T11:23:49;97955.13;;;15.51;100.00
64352;BME280;50680;52.626;-8.668;2023-03-13T11:29:05;97975.44;;;15.29;100.00
64352;BME280;50680;52.626;-8.668;2023-03-13T11:31:56;97978.19;;;15.42;100.00
64352;BME280;50680;52.626;-8.668;2023-03-13T11:34:35;97974.88;;;15.34;100.00
64352;BME280;50680;52.626;-8.668;2023-03-13T11:37:09;97979.06;;;15.07;100.00
64352;BME280;50680;52.626;-8.668;2023-03-13T11:50:34;97997.78;;;14.90;100.00
64352;BME280;50680;52.626;-8.668;2023-03-13T11:55:59;97995.66;;;15.22;100.00
64352;BME280;50680;52.626;-8.668;2023-03-13T11:58:39;97989.63;;;15.50;100.00
64352;BME280;50680;52.626;-8.668;2023-03-13T12:01:14;97986.72;;;15.88;100.00
64352;BME280;50680;52.626;-8.668;2023-03-13T12:03:58;97991.88;;;16.31;100.00
64352;BME280;50680;52.626;-8.668;2023-03-13T12:06:35;97986.66;;;16.44;100.00
64352;BME280;50680;52.626;-8.668;2023-03-13T12:09:43;97989.16;;;16.59;100.00
64352;BME280;50680;52.626;-8.668;2023-03-13T12:12:43;97983.50;;;16.69;100.00
64352;BME280;50680;52.626;-8.668;2023-03-13T12:17:48;97987.94;;;16.62;100.00
64352;BME280;50680;52.626;-8.668;2023-03-13T12:20:33;97980.69;;;16.77;100.00
64352;BME280;50680;52.626;-8.668;2023-03-13T12:26:05;97980.22;;;17.28;100.00
64352;BME280;50680;52.626;-8.668;2023-03-13T12:28:46;97979.84;;;17.65;100.00
64352;BME280;50680;52.626;-8.668;2023-03-13T12:31:34;97983.31;;;17.52;100.00
64352;BME280;50680;52.626;-8.668;2023-03-13T12:34:32;97988.00;;;17.63;100.00
64352;BME280;50680;52.626;-8.668;2023-03-13T12:45:09;97987.00;;;17.91;100.00
64352;BME280;50680;52.626;-8.668;2023-03-13T12:48:05;97979.19;;;18.16;100.00
64352;BME280;50680;52.626;-8.668;2023-03-13T12:59:02;97976.59;;;18.61;100.00
64352;BME280;50680;52.626;-8.668;2023-03-13T13:04:10;97989.00;;;17.49;100.00
64352;BME280;50680;52.626;-8.668;2023-03-13T13:06:57;97997.69;;;16.96;100.00
64352;BME280;50680;52.626;-8.668;2023-03-13T13:09:38;98006.56;;;16.40;100.00
64352;BME280;50680;52.626;-8.668;2023-03-13T13:12:24;98004.63;;;16.21;100.00
64352;BME280;50680;52.626;-8.668;2023-03-13T13:17:22;98014.34;;;15.85;100.00
64352;BME280;50680;52.626;-8.668;2023-03-13T13:19:51;98020.75;;;15.76;100.00
64352;BME280;50680;52.626;-8.668;2023-03-13T13:27:49;98024.72;;;15.65;100.00
64352;BME280;50680;52.626;-8.668;2023-03-13T13:32:51;98034.28;;;15.66;100.00
64352;BME280;50680;52.626;-8.668;2023-03-13T13:35:33;98039.66;;;15.36;100.00
64352;BME280;50680;52.626;-8.668;2023-03-13T13:41:01;98050.38;;;15.28;100.00
64352;BME280;50680;52.626;-8.668;2023-03-13T13:43:40;98052.66;;;15.16;100.00
64352;BME280;50680;52.626;-8.668;2023-03-13T13:46:25;98051.84;;;14.79;100.00
64352;BME280;50680;52.626;-8.668;2023-03-13T13:51:36;98093.53;;;13.70;100.00
64352;BME280;50680;52.626;-8.668;2023-03-13T13:57:11;98109.13;;;12.77;100.00
64352;BME280;50680;52.626;-8.668;2023-03-13T13:59:50;98109.34;;;12.43;100.00
64352;BME280;50680;52.626;-8.668;2023-03-13T14:02:24;98125.50;;;11.91;100.00
64352;BME280;50680;52.626;-8.668;2023-03-13T14:04:55;98131.53;;;12.16;100.00
64352;BME280;50680;52.626;-8.668;2023-03-13T14:07:33;98145.47;;;11.83;100.00
64352;BME280;50680;52.626;-8.668;2023-03-13T14:13:19;98163.72;;;11.93;100.00
64352;BME280;50680;52.626;-8.668;2023-03-13T14:15:50;98171.75;;;11.92;100.00
64352;BME280;50680;52.626;-8.668;2023-03-13T14:18:28;98174.22;;;11.93;100.00
64352;BME280;50680;52.626;-8.668;2023-03-13T14:21:00;98179.72;;;11.65;100.00
64352;BME280;50680;52.626;-8.668;2023-03-13T14:23:36;98177.75;;;11.76;100.00
64352;BME280;50680;52.626;-8.668;2023-03-13T14:28:41;98202.03;;;11.61;100.00
64352;BME280;50680;52.626;-8.668;2023-03-13T14:31:08;98204.66;;;11.61;100.00
64352;BME280;50680;52.626;-8.668;2023-03-13T14:33:37;98215.31;;;11.76;100.00
64352;BME280;50680;52.626;-8.668;2023-03-13T14:36:04;98227.59;;;11.67;100.00
64352;BME280;50680;52.626;-8.668;2023-03-13T14:38:31;98239.91;;;11.67;100.00